createdAt,value
2023-05-04T00:00:55.971Z,23.64
2023-05-04T00:01:55.978Z,23.64
2023-05-04T00:02:56.163Z,23.64
2023-05-04T00:03:56.275Z,23.65
2023-05-04T00:04:56.222Z,23.64
2023-05-04T00:05:56.173Z,23.65
2023-05-04T00:06:56.232Z,23.64
2023-05-04T00:07:56.266Z,23.65
2023-05-04T00:08:56.219Z,23.64
2023-05-04T00:09:56.254Z,23.64
2023-05-04T00:10:56.311Z,23.64
2023-05-04T00:11:56.375Z,23.65
2023-05-04T00:12:56.509Z,23.64
2023-05-04T00:13:56.480Z,23.64
2023-05-04T00:14:56.540Z,23.65
2023-05-04T00:15:56.609Z,23.63
2023-05-04T00:16:56.635Z,23.64
2023-05-04T00:17:56.756Z,23.64
2023-05-04T00:18:56.751Z,23.64
2023-05-04T00:19:56.811Z,23.63
2023-05-04T00:20:56.863Z,23.64
2023-05-04T00:21:56.946Z,23.64
2023-05-04T00:22:57.000Z,23.64
2023-05-04T00:23:57.055Z,23.63
2023-05-04T00:24:57.109Z,23.64
2023-05-04T00:25:57.159Z,23.64
2023-05-04T00:26:57.193Z,23.64
2023-05-04T00:27:57.219Z,23.64
2023-05-04T00:28:57.261Z,23.63
2023-05-04T00:29:57.273Z,23.64
2023-05-04T00:30:57.314Z,23.64
2023-05-04T00:31:57.409Z,23.63
2023-05-04T00:32:57.431Z,23.63
2023-05-04T00:33:57.384Z,23.64
2023-05-04T00:34:57.449Z,23.63
2023-05-04T00:35:57.440Z,23.63
2023-05-04T00:36:57.485Z,23.64
2023-05-04T00:37:57.492Z,23.63
2023-05-04T00:38:57.529Z,23.63
2023-05-04T00:39:57.575Z,23.63
2023-05-04T00:40:57.600Z,23.63
2023-05-04T00:41:57.638Z,23.63
2023-05-04T00:42:57.674Z,23.64
2023-05-04T00:43:57.683Z,23.63
2023-05-04T00:44:57.726Z,23.64
2023-05-04T00:45:57.772Z,23.64
2023-05-04T00:46:57.861Z,23.63
2023-05-04T00:47:57.900Z,23.63
2023-05-04T00:48:57.936Z,23.63
2023-05-04T00:49:57.979Z,23.64
2023-05-04T00:50:58.038Z,23.64
2023-05-04T00:51:58.099Z,23.64
2023-05-04T00:52:58.113Z,23.63
2023-05-04T00:53:58.144Z,23.63
2023-05-04T00:54:58.162Z,23.63
2023-05-04T00:55:58.184Z,23.63
2023-05-04T00:56:58.243Z,23.63
2023-05-04T00:57:58.257Z,23.63
2023-05-04T00:58:58.271Z,23.64
2023-05-04T00:59:58.315Z,23.63
2023-05-04T01:00:58.376Z,23.63
2023-05-04T01:01:58.366Z,23.63
2023-05-04T01:02:58.490Z,23.63
2023-05-04T01:03:58.418Z,23.63
2023-05-04T01:04:58.431Z,23.64
2023-05-04T01:05:58.460Z,23.63
2023-05-04T01:06:58.548Z,23.63
2023-05-04T01:07:58.577Z,23.63
2023-05-04T01:08:58.657Z,23.63
2023-05-04T01:09:58.715Z,23.62
2023-05-04T01:10:58.750Z,23.62
2023-05-04T01:11:58.836Z,23.63
2023-05-04T01:12:58.925Z,23.62
2023-05-04T01:13:58.937Z,23.63
2023-05-04T01:14:58.989Z,23.63
2023-05-04T01:15:59.049Z,23.62
2023-05-04T01:16:59.467Z,23.63
2023-05-04T01:17:59.193Z,23.63
2023-05-04T01:18:59.222Z,23.63
2023-05-04T01:19:59.280Z,23.62
2023-05-04T01:20:59.335Z,23.63
2023-05-04T01:21:59.392Z,23.63
2023-05-04T01:22:59.459Z,23.63
2023-05-04T01:23:59.486Z,23.62
2023-05-04T01:24:59.565Z,23.62
2023-05-04T01:25:59.581Z,23.63
2023-05-04T01:26:59.635Z,23.63
2023-05-04T01:27:59.623Z,23.62
2023-05-04T01:28:59.669Z,23.63
2023-05-04T01:29:59.691Z,23.62
2023-05-04T01:30:59.756Z,23.62
2023-05-04T01:31:59.746Z,23.62
2023-05-04T01:32:59.823Z,23.63
2023-05-04T01:33:59.778Z,23.62
2023-05-04T01:34:59.816Z,23.62
2023-05-04T01:35:59.824Z,23.62
2023-05-04T01:36:59.884Z,23.62
2023-05-04T01:37:59.897Z,23.62
2023-05-04T01:38:59.944Z,23.62
2023-05-04T01:39:59.955Z,23.63
2023-05-04T01:40:59.985Z,23.62
2023-05-04T01:42:00.030Z,23.62
2023-05-04T01:43:00.080Z,23.62
2023-05-04T01:44:00.140Z,23.62
2023-05-04T01:45:00.222Z,23.62
2023-05-04T01:46:00.287Z,23.62
2023-05-04T01:47:00.328Z,23.62
2023-05-04T01:48:00.396Z,23.62
2023-05-04T01:49:00.436Z,23.62
2023-05-04T01:50:00.488Z,23.62
2023-05-04T01:51:00.568Z,23.62
2023-05-04T01:52:00.613Z,23.62
2023-05-04T01:53:00.610Z,23.63
2023-05-04T01:54:00.650Z,23.62
2023-05-04T01:55:00.650Z,23.62
2023-05-04T01:56:00.670Z,23.62
2023-05-04T01:57:00.774Z,23.62
2023-05-04T01:58:00.728Z,23.62
2023-05-04T01:59:00.747Z,23.62
2023-05-04T02:00:00.765Z,23.62
2023-05-04T02:01:00.807Z,23.62
2023-05-04T02:02:00.931Z,23.62
2023-05-04T02:03:00.932Z,23.62
2023-05-04T02:04:01.072Z,23.62
2023-05-04T02:05:00.920Z,23.62
2023-05-04T02:06:00.957Z,23.62
2023-05-04T02:07:00.989Z,23.62
2023-05-04T02:08:01.064Z,23.62
2023-05-04T02:09:01.100Z,23.61
2023-05-04T02:10:01.170Z,23.62
2023-05-04T02:11:01.212Z,23.62
2023-05-04T02:12:01.268Z,23.62
2023-05-04T02:13:01.470Z,23.62
2023-05-04T02:14:01.346Z,23.62
2023-05-04T02:15:01.364Z,23.61
2023-05-04T02:16:01.404Z,23.62
2023-05-04T02:17:01.440Z,23.61
2023-05-04T02:18:01.469Z,23.62
2023-05-04T02:19:01.452Z,23.61
2023-05-04T02:20:01.530Z,23.61
2023-05-04T02:21:01.498Z,23.61
2023-05-04T02:22:01.518Z,23.61
2023-05-04T02:23:01.591Z,23.62
2023-05-04T02:24:01.577Z,23.62
2023-05-04T02:25:01.618Z,23.62
2023-05-04T02:26:01.647Z,23.61
2023-05-04T02:27:01.670Z,23.61
2023-05-04T02:28:01.706Z,23.61
2023-05-04T02:29:01.720Z,23.61
2023-05-04T02:30:01.899Z,23.62
2023-05-04T02:31:01.807Z,23.61
2023-05-04T02:32:01.876Z,23.61
2023-05-04T02:33:01.930Z,23.60
2023-05-04T02:34:01.926Z,23.62
2023-05-04T02:35:01.997Z,23.61
2023-05-04T02:36:02.067Z,23.60
2023-05-04T02:37:02.106Z,23.61
2023-05-04T02:38:02.128Z,23.61
2023-05-04T02:39:02.192Z,23.61
2023-05-04T02:40:02.399Z,23.61
2023-05-04T02:41:02.327Z,23.62
2023-05-04T02:42:02.359Z,23.61
2023-05-04T02:43:02.420Z,23.61
2023-05-04T02:44:02.492Z,23.61
2023-05-04T02:45:02.550Z,23.61
2023-05-04T02:46:02.700Z,23.61
2023-05-04T02:47:02.676Z,23.61
2023-05-04T02:48:02.808Z,23.61
2023-05-04T02:49:02.769Z,23.60
2023-05-04T02:50:03.314Z,23.61
2023-05-04T02:51:02.888Z,23.61
2023-05-04T02:52:02.941Z,23.61
2023-05-04T02:53:02.995Z,23.61
2023-05-04T02:54:03.051Z,23.60
2023-05-04T02:55:03.091Z,23.61
2023-05-04T02:56:03.101Z,23.61
2023-05-04T02:57:03.155Z,23.61
2023-05-04T02:58:03.162Z,23.60
2023-05-04T02:59:03.202Z,23.61
2023-05-04T03:00:03.324Z,23.60
2023-05-04T03:01:03.271Z,23.60
2023-05-04T03:02:03.312Z,23.61
2023-05-04T03:03:03.419Z,23.60
2023-05-04T03:04:03.474Z,23.61
2023-05-04T03:05:03.434Z,23.60
2023-05-04T03:06:03.465Z,23.60
2023-05-04T03:07:03.508Z,23.60
2023-05-04T03:08:03.527Z,23.61
2023-05-04T03:09:03.562Z,23.61
2023-05-04T03:10:03.676Z,23.60
2023-05-04T03:11:03.640Z,23.60
2023-05-04T03:12:03.668Z,23.61
2023-05-04T03:13:03.756Z,23.60
2023-05-04T03:14:03.713Z,23.61
2023-05-04T03:15:03.751Z,23.60
2023-05-04T03:16:03.848Z,23.61
2023-05-04T03:17:03.914Z,23.60
2023-05-04T03:18:03.980Z,23.61
2023-05-04T03:19:03.996Z,23.61
2023-05-04T03:20:04.256Z,23.60
2023-05-04T03:21:04.125Z,23.60
2023-05-04T03:22:04.178Z,23.61
2023-05-04T03:23:04.223Z,23.60
2023-05-04T03:24:04.249Z,23.61
2023-05-04T03:25:04.267Z,23.60
2023-05-04T03:26:04.291Z,23.60
2023-05-04T03:27:04.355Z,23.60
2023-05-04T03:28:04.352Z,23.60
2023-05-04T03:29:04.390Z,23.60
2023-05-04T03:30:04.533Z,23.60
2023-05-04T03:31:04.464Z,23.60
2023-05-04T03:32:04.538Z,23.60
2023-05-04T03:33:04.583Z,23.60
2023-05-04T03:34:04.597Z,23.61
2023-05-04T03:35:04.653Z,23.61
2023-05-04T03:36:04.732Z,23.60
2023-05-04T03:37:04.778Z,23.61
2023-05-04T03:38:04.767Z,23.60
2023-05-04T03:39:04.813Z,23.60
2023-05-04T03:40:05.078Z,23.60
2023-05-04T03:41:04.890Z,23.60
2023-05-04T03:42:04.969Z,23.60
2023-05-04T03:43:05.012Z,23.60
2023-05-04T03:44:05.058Z,23.60
2023-05-04T03:45:05.117Z,23.60
2023-05-04T03:46:05.241Z,23.59
2023-05-04T03:47:05.258Z,23.59
2023-05-04T03:48:05.426Z,23.60
2023-05-04T03:49:05.379Z,23.61
2023-05-04T03:50:05.612Z,23.59
2023-05-04T03:51:05.536Z,23.60
2023-05-04T03:52:05.538Z,23.60
2023-05-04T03:53:05.559Z,23.59
2023-05-04T03:54:05.577Z,23.60
2023-05-04T03:55:05.608Z,23.60
2023-05-04T03:56:05.623Z,23.60
2023-05-04T03:57:05.664Z,23.60
2023-05-04T03:58:05.682Z,23.60
2023-05-04T03:59:05.718Z,23.60
2023-05-04T04:00:05.882Z,23.60
2023-05-04T04:01:05.782Z,23.60
2023-05-04T04:02:05.830Z,23.59
2023-05-04T04:03:05.911Z,23.59
2023-05-04T04:04:06.061Z,23.60
2023-05-04T04:05:05.888Z,23.60
2023-05-04T04:06:05.936Z,23.60
2023-05-04T04:07:05.974Z,23.60
2023-05-04T04:08:05.985Z,23.60
2023-05-04T04:09:06.001Z,23.60
2023-05-04T04:10:06.320Z,23.60
2023-05-04T04:11:06.063Z,23.60
2023-05-04T04:12:06.117Z,23.60
2023-05-04T04:13:06.186Z,23.60
2023-05-04T04:14:06.260Z,23.60
2023-05-04T04:15:06.189Z,23.60
2023-05-04T04:16:06.267Z,23.60
2023-05-04T04:17:06.280Z,23.60
2023-05-04T04:18:06.381Z,23.61
2023-05-04T04:19:06.325Z,23.60
2023-05-04T04:20:06.593Z,23.60
2023-05-04T04:21:06.395Z,23.61
2023-05-04T04:22:06.445Z,23.61
2023-05-04T04:23:06.456Z,23.61
2023-05-04T04:24:06.481Z,23.61
2023-05-04T04:25:06.528Z,23.61
2023-05-04T04:26:06.528Z,23.61
2023-05-04T04:27:06.581Z,23.61
2023-05-04T04:28:06.599Z,23.61
2023-05-04T04:29:06.619Z,23.62
2023-05-04T04:30:06.828Z,23.61
2023-05-04T04:31:06.691Z,23.61
2023-05-04T04:32:06.727Z,23.62
2023-05-04T04:33:06.824Z,23.62
2023-05-04T04:34:06.802Z,23.61
2023-05-04T04:35:06.856Z,23.62
2023-05-04T04:36:06.878Z,23.62
2023-05-04T04:37:06.918Z,23.62
2023-05-04T04:38:06.962Z,23.62
2023-05-04T04:39:06.963Z,23.61
2023-05-04T04:40:07.116Z,23.63
2023-05-04T04:41:06.982Z,23.63
2023-05-04T04:42:07.017Z,23.62
2023-05-04T04:43:07.105Z,23.62
2023-05-04T04:44:07.086Z,23.62
2023-05-04T04:45:07.145Z,23.62
2023-05-04T04:46:07.155Z,23.63
2023-05-04T04:47:07.219Z,23.63
2023-05-04T04:48:07.286Z,23.64
2023-05-04T04:49:07.238Z,23.63
2023-05-04T04:50:07.564Z,23.63
2023-05-04T04:51:07.371Z,23.63
2023-05-04T04:52:07.437Z,23.64
2023-05-04T04:53:07.492Z,23.64
2023-05-04T04:54:07.557Z,23.64
2023-05-04T04:55:07.597Z,23.64
2023-05-04T04:56:07.660Z,23.66
2023-05-04T04:57:07.706Z,23.70
2023-05-04T04:58:07.701Z,23.74
2023-05-04T04:59:07.728Z,23.77
2023-05-04T05:00:07.864Z,23.91
2023-05-04T05:01:07.843Z,24.53
2023-05-04T05:02:07.857Z,24.99
2023-05-04T05:03:07.919Z,25.43
2023-05-04T05:04:07.880Z,25.81
2023-05-04T05:05:08.044Z,26.17
2023-05-04T05:06:07.904Z,26.53
2023-05-04T05:07:07.920Z,26.84
2023-05-04T05:08:07.960Z,27.10
2023-05-04T05:09:08.017Z,27.35
2023-05-04T05:10:08.308Z,27.56
2023-05-04T05:11:08.109Z,27.74
2023-05-04T05:12:08.137Z,27.91
2023-05-04T05:13:08.209Z,28.05
2023-05-04T05:14:08.143Z,28.22
2023-05-04T05:15:08.201Z,28.39
2023-05-04T05:16:08.258Z,28.56
2023-05-04T05:17:08.374Z,28.71
2023-05-04T05:18:08.327Z,28.86
2023-05-04T05:19:08.318Z,29.02
2023-05-04T05:20:08.325Z,29.15
2023-05-04T05:21:08.362Z,29.28
2023-05-04T05:22:08.425Z,29.42
2023-05-04T05:23:08.436Z,29.56
2023-05-04T05:24:08.457Z,29.68
2023-05-04T05:25:08.509Z,29.65
2023-05-04T05:26:08.529Z,29.72
2023-05-04T05:27:09.036Z,29.79
2023-05-04T05:28:08.698Z,29.84
2023-05-04T05:29:08.734Z,29.86
2023-05-04T05:30:08.816Z,29.63
2023-05-04T05:31:08.840Z,29.15
2023-05-04T05:32:08.872Z,28.60
2023-05-04T05:33:08.939Z,28.13
2023-05-04T05:34:09.012Z,27.74
2023-05-04T05:35:08.956Z,27.44
2023-05-04T05:36:09.008Z,27.20
2023-05-04T05:37:09.534Z,27.00
2023-05-04T05:38:09.224Z,26.86
2023-05-04T05:39:09.134Z,26.83
2023-05-04T05:40:09.168Z,26.89
2023-05-04T05:41:09.191Z,27.09
2023-05-04T05:42:09.552Z,27.33
2023-05-04T05:43:09.188Z,27.24
2023-05-04T05:44:10.164Z,26.92
2023-05-04T05:45:09.264Z,26.68
2023-05-04T05:46:09.309Z,26.49
2023-05-04T05:47:09.324Z,26.34
2023-05-04T05:48:09.424Z,26.23
2023-05-04T05:49:09.370Z,26.13
2023-05-04T05:50:09.426Z,26.03
2023-05-04T05:51:09.436Z,25.94
2023-05-04T05:52:09.538Z,25.87
2023-05-04T05:53:09.535Z,25.81
2023-05-04T05:54:09.548Z,25.75
2023-05-04T05:55:09.563Z,25.70
2023-05-04T05:56:09.573Z,25.65
2023-05-04T05:57:09.570Z,25.59
2023-05-04T05:58:09.555Z,25.56
2023-05-04T05:59:09.560Z,25.53
2023-05-04T06:00:09.540Z,25.51
2023-05-04T06:01:09.556Z,25.49
2023-05-04T06:02:09.605Z,25.48
2023-05-04T06:03:09.622Z,25.46
2023-05-04T06:04:09.634Z,25.43
2023-05-04T06:05:09.582Z,25.42
2023-05-04T06:06:09.609Z,25.40
2023-05-04T06:07:09.664Z,25.38
2023-05-04T06:08:09.659Z,25.36
2023-05-04T06:09:09.725Z,25.36
2023-05-04T06:10:09.796Z,25.34
2023-05-04T06:11:09.886Z,25.33
2023-05-04T06:12:09.928Z,25.31
2023-05-04T06:13:09.992Z,25.30
2023-05-04T06:14:10.043Z,25.30
2023-05-04T06:15:10.120Z,25.29
2023-05-04T06:16:10.207Z,25.28
2023-05-04T06:17:10.302Z,25.28
2023-05-04T06:18:10.333Z,25.28
2023-05-04T06:19:10.314Z,25.28
2023-05-04T06:20:10.353Z,25.27
2023-05-04T06:21:10.425Z,25.27
2023-05-04T06:22:10.509Z,25.25
2023-05-04T06:23:10.532Z,25.26
2023-05-04T06:24:10.588Z,25.25
2023-05-04T06:25:10.668Z,25.24
2023-05-04T06:26:10.687Z,25.22
2023-05-04T06:27:10.722Z,25.22
2023-05-04T06:28:11.059Z,25.22
2023-05-04T06:29:10.765Z,25.20
2023-05-04T06:30:10.778Z,25.20
2023-05-04T06:31:10.912Z,25.21
2023-05-04T06:32:11.079Z,25.22
2023-05-04T06:33:11.129Z,25.19
2023-05-04T06:34:10.904Z,25.19
2023-05-04T06:35:10.947Z,25.19
2023-05-04T06:36:10.980Z,25.19
2023-05-04T06:37:11.536Z,25.17
2023-05-04T06:38:11.543Z,25.16
2023-05-04T06:39:11.053Z,25.13
2023-05-04T06:40:11.286Z,25.11
2023-05-04T06:41:11.132Z,25.09
2023-05-04T06:42:11.162Z,25.06
2023-05-04T06:43:11.217Z,25.05
2023-05-04T06:44:11.225Z,25.02
2023-05-04T06:45:11.292Z,25.00
2023-05-04T06:46:11.382Z,24.99
2023-05-04T06:47:11.403Z,24.97
2023-05-04T06:48:11.501Z,24.96
2023-05-04T06:49:11.520Z,24.94
2023-05-04T06:50:11.566Z,24.93
2023-05-04T06:51:11.575Z,24.91
2023-05-04T06:52:11.587Z,24.90
2023-05-04T06:53:12.082Z,24.88
2023-05-04T06:54:11.614Z,24.87
2023-05-04T06:55:11.640Z,24.86
2023-05-04T06:56:11.644Z,24.85
2023-05-04T06:57:11.696Z,24.85
2023-05-04T06:58:11.713Z,24.84
2023-05-04T06:59:11.723Z,24.83
2023-05-04T07:00:11.708Z,24.82
2023-05-04T07:01:11.755Z,24.82
2023-05-04T07:02:11.739Z,24.81
2023-05-04T07:03:11.787Z,24.80
2023-05-04T07:04:11.791Z,24.80
2023-05-04T07:05:11.846Z,24.79
2023-05-04T07:06:11.916Z,24.79
2023-05-04T07:07:11.998Z,24.79
2023-05-04T07:08:12.027Z,24.78
2023-05-04T07:09:12.080Z,24.78
2023-05-04T07:10:12.100Z,24.77
2023-05-04T07:11:12.110Z,24.77
2023-05-04T07:12:12.152Z,24.77
2023-05-04T07:13:12.684Z,24.77
2023-05-04T07:14:12.277Z,24.76
2023-05-04T07:15:12.221Z,24.75
2023-05-04T07:16:12.256Z,24.75
2023-05-04T07:17:12.284Z,24.75
2023-05-04T07:18:12.340Z,24.75
2023-05-04T07:19:12.441Z,24.75
2023-05-04T07:20:12.463Z,24.75
2023-05-04T07:22:12.381Z,24.74
2023-05-04T07:23:12.372Z,24.74
2023-05-04T07:24:12.352Z,24.74
2023-05-04T07:25:12.329Z,24.74
2023-05-04T07:26:12.353Z,24.73
2023-05-04T07:27:12.607Z,24.74
2023-05-04T07:28:12.344Z,24.75
2023-05-04T07:29:12.317Z,24.78
2023-05-04T07:30:12.302Z,24.82
2023-05-04T07:31:12.329Z,24.84
2023-05-04T07:32:12.344Z,24.90
2023-05-04T07:33:12.610Z,24.95
2023-05-04T07:34:12.399Z,24.97
2023-05-04T07:35:12.399Z,25.00
2023-05-04T07:36:12.404Z,25.02
2023-05-04T07:37:12.268Z,25.05
2023-05-04T07:38:12.541Z,25.06
2023-05-04T07:39:12.258Z,25.06
2023-05-04T07:40:12.294Z,25.04
2023-05-04T07:41:12.250Z,25.02
2023-05-04T07:42:12.219Z,24.99
2023-05-04T07:43:12.560Z,24.95
2023-05-04T07:44:12.337Z,24.93
2023-05-04T07:45:12.195Z,24.92
2023-05-04T07:46:12.187Z,24.91
2023-05-04T07:47:12.194Z,24.92
2023-05-04T07:48:12.618Z,24.93
2023-05-04T07:49:12.182Z,24.95
2023-05-04T07:50:12.169Z,24.97
2023-05-04T07:51:12.163Z,24.99
2023-05-04T07:52:12.179Z,25.08
2023-05-04T07:53:12.554Z,25.15
2023-05-04T07:54:12.149Z,25.21
2023-05-04T07:55:12.147Z,25.23
2023-05-04T07:56:12.132Z,25.27
2023-05-04T07:57:12.231Z,25.31
2023-05-04T07:58:12.670Z,25.35
2023-05-04T07:59:12.111Z,25.37
2023-05-04T08:00:12.097Z,25.40
2023-05-04T08:01:12.235Z,25.42
2023-05-04T08:02:12.173Z,25.43
2023-05-04T08:03:12.605Z,25.47
2023-05-04T08:04:12.161Z,25.49
2023-05-04T08:05:12.230Z,25.51
2023-05-04T08:06:12.313Z,25.53
2023-05-04T08:07:12.384Z,25.56
2023-05-04T08:08:12.421Z,25.58
2023-05-04T08:09:12.515Z,25.63
2023-05-04T08:10:12.559Z,25.65
2023-05-04T08:11:20.015Z,25.68
2023-05-04T08:12:13.599Z,25.69
2023-05-04T08:13:12.663Z,25.72
2023-05-04T08:14:12.610Z,25.72
2023-05-04T08:15:12.567Z,25.75
2023-05-04T08:16:12.693Z,25.77
2023-05-04T08:17:12.546Z,25.77
2023-05-04T08:18:12.560Z,25.79
2023-05-04T08:19:12.636Z,25.79
2023-05-04T08:20:12.529Z,25.79
2023-05-04T08:21:12.514Z,25.79
2023-05-04T08:22:12.521Z,25.70
2023-05-04T08:23:12.603Z,25.56
2023-05-04T08:24:12.682Z,25.48
2023-05-04T08:25:12.499Z,25.42
2023-05-04T08:26:12.484Z,25.35
2023-05-04T08:27:12.497Z,25.28
2023-05-04T08:28:12.504Z,25.23
2023-05-04T08:29:12.481Z,25.14
2023-05-04T08:30:12.563Z,25.07
2023-05-04T08:31:12.605Z,25.03
2023-05-04T08:32:12.593Z,25.00
2023-05-04T08:33:12.845Z,24.96
2023-05-04T08:34:12.719Z,24.95
2023-05-04T08:35:12.684Z,24.94
2023-05-04T08:36:12.710Z,24.92
2023-05-04T08:37:12.729Z,24.86
2023-05-04T08:38:13.108Z,24.84
2023-05-04T08:39:12.776Z,24.85
2023-05-04T08:40:12.808Z,24.87
2023-05-04T08:41:12.854Z,24.92
2023-05-04T08:42:12.855Z,24.96
2023-05-04T08:43:13.331Z,25.01
2023-05-04T08:44:12.884Z,25.06
2023-05-04T08:45:12.881Z,25.10
2023-05-04T08:46:12.918Z,25.15
2023-05-04T08:47:12.892Z,25.19
2023-05-04T08:48:12.921Z,25.22
2023-05-04T08:49:12.928Z,25.25
2023-05-04T08:50:12.989Z,25.30
2023-05-04T08:51:13.053Z,25.32
2023-05-04T08:52:13.072Z,25.36
2023-05-04T08:53:13.164Z,25.39
2023-05-04T08:54:13.224Z,25.41
2023-05-04T08:55:13.260Z,25.42
2023-05-04T08:56:13.281Z,25.41
2023-05-04T08:57:13.291Z,25.42
2023-05-04T08:58:13.320Z,25.42
2023-05-04T08:59:13.293Z,25.43
2023-05-04T09:00:13.296Z,25.43
2023-05-04T09:01:13.409Z,25.45
2023-05-04T09:02:13.471Z,25.47
2023-05-04T09:03:13.717Z,25.49
2023-05-04T09:04:13.476Z,25.51
2023-05-04T09:05:13.503Z,25.52
2023-05-04T09:06:13.498Z,25.53
2023-05-04T09:07:13.498Z,25.55
2023-05-04T09:08:13.619Z,25.56
2023-05-04T09:09:13.553Z,25.56
2023-05-04T09:10:13.626Z,25.50
2023-05-04T09:11:13.689Z,25.45
2023-05-04T09:12:13.790Z,25.43
2023-05-04T09:13:13.888Z,25.43
2023-05-04T09:14:13.766Z,25.44
2023-05-04T09:15:13.835Z,25.45
2023-05-04T09:16:14.809Z,25.47
2023-05-04T09:17:13.978Z,25.49
2023-05-04T09:18:14.229Z,25.51
2023-05-04T09:19:13.945Z,25.52
2023-05-04T09:20:13.948Z,25.55
2023-05-04T09:21:13.956Z,25.57
2023-05-04T09:22:14.005Z,25.58
2023-05-04T09:23:14.284Z,25.60
2023-05-04T09:24:14.087Z,25.61
2023-05-04T09:25:14.114Z,25.63
2023-05-04T09:26:14.346Z,25.61
2023-05-04T09:27:14.316Z,25.57
2023-05-04T09:28:14.264Z,25.56
2023-05-04T09:29:14.282Z,25.52
2023-05-04T09:30:14.351Z,25.49
2023-05-04T09:31:14.453Z,25.47
2023-05-04T09:32:14.531Z,25.45
2023-05-04T09:33:14.635Z,25.42
2023-05-04T09:34:14.610Z,25.39
2023-05-04T09:35:25.312Z,25.38
2023-05-04T09:36:15.616Z,25.36
2023-05-04T09:37:14.632Z,25.36
2023-05-04T09:38:14.594Z,25.35
2023-05-04T09:39:14.574Z,25.34
2023-05-04T09:40:14.571Z,25.33
2023-05-04T09:41:14.571Z,25.33
2023-05-04T09:42:14.554Z,25.32
2023-05-04T09:43:14.539Z,25.33
2023-05-04T09:44:14.556Z,25.32
2023-05-04T09:45:14.564Z,25.32
2023-05-04T09:46:14.562Z,25.31
2023-05-04T09:47:14.524Z,25.30
2023-05-04T09:48:14.586Z,25.30
2023-05-04T09:49:14.664Z,25.29
2023-05-04T09:50:15.520Z,25.28
2023-05-04T09:51:14.790Z,25.28
2023-05-04T09:52:14.840Z,25.27
2023-05-04T09:53:15.119Z,25.26
2023-05-04T09:54:15.168Z,25.26
2023-05-04T09:55:14.891Z,25.25
2023-05-04T09:56:15.040Z,25.24
2023-05-04T09:57:14.956Z,25.23
2023-05-04T09:58:15.106Z,25.21
2023-05-04T09:59:15.162Z,25.20
2023-05-04T10:00:15.017Z,25.19
2023-05-04T10:01:15.085Z,25.20
2023-05-04T10:02:22.822Z,25.19
2023-05-04T10:03:16.128Z,25.17
2023-05-04T10:04:15.080Z,25.16
2023-05-04T10:05:15.072Z,25.16
2023-05-04T10:06:15.074Z,25.15
2023-05-04T10:07:15.032Z,25.15
2023-05-04T10:08:15.125Z,25.14
2023-05-04T10:09:15.047Z,25.14
2023-05-04T10:10:15.065Z,25.13
2023-05-04T10:11:15.043Z,25.13
2023-05-04T10:12:15.055Z,25.12
2023-05-04T10:13:15.093Z,25.12
2023-05-04T10:14:15.073Z,25.12
2023-05-04T10:15:14.980Z,25.11
2023-05-04T10:16:15.050Z,25.11
2023-05-04T10:17:15.033Z,25.11
2023-05-04T10:18:15.092Z,25.11
2023-05-04T10:19:15.079Z,25.11
2023-05-04T10:20:15.073Z,25.10
2023-05-04T10:21:15.087Z,25.11
2023-05-04T10:22:15.167Z,25.10
2023-05-04T10:23:15.118Z,25.09
2023-05-04T10:24:15.744Z,25.09
2023-05-04T10:25:15.130Z,25.08
2023-05-04T10:26:15.122Z,25.07
2023-05-04T10:27:15.104Z,25.05
2023-05-04T10:28:15.127Z,25.05
2023-05-04T10:29:15.113Z,25.04
2023-05-04T10:30:15.146Z,25.04
2023-05-04T10:31:15.255Z,25.02
2023-05-04T10:32:15.242Z,24.99
2023-05-04T10:33:15.282Z,24.99
2023-05-04T10:34:15.622Z,24.98
2023-05-04T10:35:15.375Z,24.98
2023-05-04T10:36:15.451Z,24.99
2023-05-04T10:37:15.473Z,24.98
2023-05-04T10:38:15.487Z,24.98
2023-05-04T10:39:15.452Z,24.98
2023-05-04T10:40:15.459Z,24.99
2023-05-04T10:41:15.482Z,24.99
2023-05-04T10:42:15.522Z,24.99
2023-05-04T10:43:15.580Z,24.99
2023-05-04T10:44:15.619Z,25.01
2023-05-04T10:45:15.666Z,25.01
2023-05-04T10:46:15.741Z,25.01
2023-05-04T10:47:15.765Z,25.02
2023-05-04T10:48:15.814Z,25.01
2023-05-04T10:49:15.880Z,25.02
2023-05-04T10:50:15.986Z,25.02
2023-05-04T10:51:15.924Z,25.02
2023-05-04T10:52:15.913Z,25.02
2023-05-04T10:53:15.903Z,25.02
2023-05-04T10:54:16.121Z,25.02
2023-05-04T10:55:15.955Z,25.01
2023-05-04T10:56:15.938Z,25.01
2023-05-04T10:57:15.999Z,25.01
2023-05-04T10:58:16.069Z,25.01
2023-05-04T10:59:16.202Z,25.01
2023-05-04T11:00:16.142Z,25.00
2023-05-04T11:01:16.218Z,25.01
2023-05-04T11:02:16.241Z,25.00
2023-05-04T11:03:16.390Z,24.99
2023-05-04T11:04:16.688Z,25.00
2023-05-04T11:05:16.373Z,24.99
2023-05-04T11:06:16.404Z,24.99
2023-05-04T11:07:16.498Z,24.99
2023-05-04T11:08:16.546Z,24.99
2023-05-04T11:09:16.604Z,24.98
2023-05-04T11:10:16.726Z,24.98
2023-05-04T11:11:16.708Z,24.97
2023-05-04T11:12:16.744Z,24.98
2023-05-04T11:13:16.764Z,24.97
2023-05-04T11:14:16.834Z,24.97
2023-05-04T11:15:16.746Z,24.97
2023-05-04T11:16:16.922Z,24.96
2023-05-04T11:18:19.024Z,24.96
2023-05-04T11:19:16.877Z,24.95
2023-05-04T11:20:16.730Z,24.95
2023-05-04T11:21:16.859Z,24.95
2023-05-04T11:22:16.821Z,24.94
2023-05-04T11:23:16.878Z,24.94
2023-05-04T11:24:16.818Z,24.94
2023-05-04T11:25:16.729Z,24.93
2023-05-04T11:26:16.915Z,24.93
2023-05-04T11:27:16.838Z,24.93
2023-05-04T11:28:16.760Z,24.92
2023-05-04T11:29:16.754Z,24.92
2023-05-04T11:30:16.938Z,24.92
2023-05-04T11:31:16.827Z,24.92
2023-05-04T11:32:17.009Z,24.91
2023-05-04T11:33:16.943Z,24.91
2023-05-04T11:34:16.972Z,24.91
2023-05-04T11:35:17.148Z,24.90
2023-05-04T11:36:17.104Z,24.90
2023-05-04T11:37:17.216Z,24.90
2023-05-04T11:38:17.344Z,24.88
2023-05-04T11:39:17.229Z,24.89
2023-05-04T11:40:17.250Z,24.88
2023-05-04T11:41:17.350Z,24.88
2023-05-04T11:42:17.376Z,24.87
2023-05-04T11:43:17.450Z,24.87
2023-05-04T11:44:17.498Z,24.87
2023-05-04T11:45:17.524Z,24.86
2023-05-04T11:46:17.595Z,24.86
2023-05-04T11:47:17.603Z,24.85
2023-05-04T11:48:18.779Z,24.85
2023-05-04T11:49:17.718Z,24.85
2023-05-04T11:50:17.771Z,24.85
2023-05-04T11:51:17.801Z,24.84
2023-05-04T11:52:17.804Z,24.84
2023-05-04T11:53:17.809Z,24.84
2023-05-04T11:54:17.853Z,24.83
2023-05-04T11:55:17.910Z,24.83
2023-05-04T11:56:17.954Z,24.83
2023-05-04T11:57:17.988Z,24.83
2023-05-04T11:58:18.006Z,24.82
2023-05-04T11:59:18.028Z,24.81
2023-05-04T12:00:18.038Z,24.82
2023-05-04T12:01:18.049Z,24.81
2023-05-04T12:02:18.101Z,24.81
2023-05-04T12:03:18.178Z,24.81
2023-05-04T12:04:18.117Z,24.80
2023-05-04T12:05:18.121Z,24.81
2023-05-04T12:06:18.126Z,24.80
2023-05-04T12:07:18.140Z,24.79
2023-05-04T12:08:18.163Z,24.79
2023-05-04T12:09:18.256Z,24.79
2023-05-04T12:10:18.211Z,24.79
2023-05-04T12:11:18.307Z,24.78
2023-05-04T12:12:18.298Z,24.78
2023-05-04T12:13:18.404Z,24.78
2023-05-04T12:14:18.436Z,24.78
2023-05-04T12:15:18.492Z,24.77
2023-05-04T12:16:18.621Z,24.77
2023-05-04T12:17:18.616Z,24.76
2023-05-04T12:18:18.677Z,24.76
2023-05-04T12:19:18.752Z,24.76
2023-05-04T12:20:18.791Z,24.76
2023-05-04T12:21:18.863Z,24.75
2023-05-04T12:22:18.883Z,24.75
2023-05-04T12:23:18.920Z,24.75
2023-05-04T12:24:18.969Z,24.75
2023-05-04T12:25:18.994Z,24.75
2023-05-04T12:26:19.967Z,24.75
2023-05-04T12:27:19.060Z,24.75
2023-05-04T12:28:19.070Z,24.74
2023-05-04T12:29:19.103Z,24.73
2023-05-04T12:30:19.127Z,24.73
2023-05-04T12:31:19.235Z,24.73
2023-05-04T12:32:19.168Z,24.73
2023-05-04T12:33:19.208Z,24.73
2023-05-04T12:34:19.237Z,24.73
2023-05-04T12:35:19.262Z,24.73
2023-05-04T12:36:19.314Z,24.73
2023-05-04T12:37:19.316Z,24.72
2023-05-04T12:38:19.348Z,24.72
2023-05-04T12:39:19.377Z,24.71
2023-05-04T12:40:28.207Z,24.71
2023-05-04T12:41:20.453Z,24.71
2023-05-04T12:42:19.391Z,24.71
2023-05-04T12:43:20.967Z,24.71
2023-05-04T12:44:19.377Z,24.71
2023-05-04T12:45:19.362Z,24.70
2023-05-04T12:46:19.508Z,24.72
2023-05-04T12:47:19.343Z,24.73
2023-05-04T12:48:19.331Z,24.74
2023-05-04T12:49:19.331Z,24.74
2023-05-04T12:50:19.323Z,24.75
2023-05-04T12:51:19.342Z,24.75
2023-05-04T12:52:19.321Z,24.75
2023-05-04T12:53:19.304Z,24.75
2023-05-04T12:54:19.316Z,24.75
2023-05-04T12:55:19.318Z,24.76